createdAt,value
2019-02-28T00:00:06.518Z,5.20
2019-02-28T00:01:04.839Z,5.20
2019-02-28T00:02:04.737Z,5.20
2019-02-28T00:03:04.961Z,5.20
2019-02-28T00:04:04.179Z,5.20
2019-02-28T00:05:06.033Z,5.20
2019-02-28T00:06:04.576Z,5.20
2019-02-28T00:07:04.529Z,5.20
2019-02-28T00:08:04.614Z,5.20
2019-02-28T00:09:05.106Z,5.20
2019-02-28T00:10:05.019Z,5.20
2019-02-28T00:11:05.940Z,5.20
2019-02-28T00:12:04.726Z,5.10
2019-02-28T00:13:05.100Z,5.10
2019-02-28T00:14:04.275Z,5.10
2019-02-28T00:15:04.462Z,5.10
2019-02-28T00:16:04.879Z,5.00
2019-02-28T00:17:06.150Z,5.00
2019-02-28T00:18:04.392Z,5.00
2019-02-28T00:19:04.460Z,4.90
2019-02-28T00:20:04.950Z,4.90
2019-02-28T00:21:06.881Z,4.90
2019-02-28T00:22:04.788Z,4.90
2019-02-28T00:23:05.137Z,4.80
2019-02-28T00:24:04.194Z,4.80
2019-02-28T00:25:05.033Z,4.80
2019-02-28T00:26:04.794Z,4.80
2019-02-28T00:27:04.577Z,4.80
2019-02-28T00:28:05.202Z,4.70
2019-02-28T00:29:09.681Z,4.70
2019-02-28T00:30:05.941Z,4.70
2019-02-28T00:31:04.495Z,4.70
2019-02-28T00:32:04.810Z,4.70
2019-02-28T00:33:04.182Z,4.70
2019-02-28T00:34:05.506Z,4.60
2019-02-28T00:35:05.069Z,4.60
2019-02-28T00:36:04.249Z,4.60
2019-02-28T00:37:04.342Z,4.60
2019-02-28T00:38:04.549Z,4.60
2019-02-28T00:39:04.983Z,4.60
2019-02-28T00:40:06.564Z,4.50
2019-02-28T00:41:05.090Z,4.50
2019-02-28T00:42:05.190Z,4.50
2019-02-28T00:43:04.320Z,4.50
2019-02-28T00:44:04.559Z,4.50
2019-02-28T00:45:04.709Z,4.50
2019-02-28T00:46:04.404Z,4.50
2019-02-28T00:47:04.420Z,4.50
2019-02-28T00:48:04.928Z,4.40
2019-02-28T00:49:04.580Z,4.40
2019-02-28T00:50:04.239Z,4.40
2019-02-28T00:51:04.776Z,4.40
2019-02-28T00:52:04.267Z,4.40
2019-02-28T00:53:06.350Z,4.40
2019-02-28T00:54:04.932Z,4.30
2019-02-28T00:55:05.153Z,4.30
2019-02-28T00:56:04.173Z,4.30
2019-02-28T00:57:04.229Z,4.30
2019-02-28T00:58:04.829Z,4.30
2019-02-28T00:59:04.915Z,4.30
2019-02-28T01:00:05.373Z,4.20
2019-02-28T01:01:05.025Z,4.20
2019-02-28T01:02:04.984Z,4.20
2019-02-28T01:03:04.541Z,4.20
2019-02-28T01:04:04.562Z,4.20
2019-02-28T01:05:05.955Z,4.20
2019-02-28T01:06:09.495Z,4.10
2019-02-28T01:07:05.114Z,4.10
2019-02-28T01:08:04.386Z,4.10
2019-02-28T01:09:04.553Z,4.10
2019-02-28T01:10:04.601Z,4.10
2019-02-28T01:11:05.045Z,4.10
2019-02-28T01:12:04.204Z,4.10
2019-02-28T01:13:04.298Z,4.10
2019-02-28T01:14:04.488Z,4.10
2019-02-28T01:15:07.119Z,4.10
2019-02-28T01:16:04.488Z,4.10
2019-02-28T01:17:04.513Z,4.10
2019-02-28T01:18:04.567Z,4.10
2019-02-28T01:19:08.611Z,4.10
2019-02-28T01:20:04.673Z,4.10
2019-02-28T01:21:04.739Z,4.10
2019-02-28T01:22:04.943Z,4.10
2019-02-28T01:23:04.419Z,4.10
2019-02-28T01:24:04.620Z,4.10
2019-02-28T01:25:06.458Z,4.10
2019-02-28T01:26:04.284Z,4.10
2019-02-28T01:27:04.300Z,4.10
2019-02-28T01:28:04.707Z,4.10
2019-02-28T01:29:04.910Z,4.10
2019-02-28T01:30:06.587Z,4.10
2019-02-28T01:31:04.843Z,4.10
2019-02-28T01:32:04.518Z,4.10
2019-02-28T01:33:04.792Z,4.10
2019-02-28T01:34:04.968Z,4.10
2019-02-28T01:35:06.720Z,4.10
2019-02-28T01:36:04.657Z,4.10
2019-02-28T01:37:04.811Z,4.10
2019-02-28T01:38:05.147Z,4.10
2019-02-28T01:39:04.785Z,4.10
2019-02-28T01:40:05.277Z,4.10
2019-02-28T01:41:05.103Z,4.10
2019-02-28T01:42:05.263Z,4.10
2019-02-28T01:43:04.836Z,4.10
2019-02-28T01:44:04.793Z,4.10
2019-02-28T01:45:06.976Z,4.10
2019-02-28T01:46:04.454Z,4.10
2019-02-28T01:47:04.880Z,4.10
2019-02-28T01:48:09.394Z,4.10
2019-02-28T01:49:04.682Z,4.10
2019-02-28T01:50:04.890Z,4.10
2019-02-28T01:51:04.947Z,4.10
2019-02-28T01:52:09.537Z,4.10
2019-02-28T01:53:05.126Z,4.10
2019-02-28T01:54:04.723Z,4.00
2019-02-28T01:55:05.048Z,4.00
2019-02-28T01:56:04.707Z,4.00
2019-02-28T01:57:05.197Z,4.00
2019-02-28T01:58:04.303Z,4.00
2019-02-28T01:59:04.385Z,4.00
2019-02-28T02:00:04.756Z,4.00
2019-02-28T02:01:05.092Z,4.00
2019-02-28T02:02:05.942Z,4.00
2019-02-28T02:03:04.595Z,4.00
2019-02-28T02:04:04.636Z,4.00
2019-02-28T02:05:04.750Z,4.00
2019-02-28T02:06:05.118Z,4.00
2019-02-28T02:07:05.191Z,4.00
2019-02-28T02:08:07.219Z,4.00
2019-02-28T02:09:05.106Z,4.00
2019-02-28T02:10:04.206Z,4.00
2019-02-28T02:11:04.221Z,4.00
2019-02-28T02:12:05.005Z,4.00
2019-02-28T02:13:05.065Z,4.00
2019-02-28T02:14:07.365Z,4.00
2019-02-28T02:15:05.184Z,4.00
2019-02-28T02:16:04.485Z,4.00
2019-02-28T02:17:04.719Z,4.00
2019-02-28T02:18:06.278Z,4.00
2019-02-28T02:19:04.394Z,4.00
2019-02-28T02:20:04.962Z,4.00
2019-02-28T02:21:05.137Z,4.00
2019-02-28T02:22:08.993Z,4.00
2019-02-28T02:23:04.513Z,4.00
2019-02-28T02:24:04.914Z,4.00
2019-02-28T02:25:04.429Z,4.00
2019-02-28T02:26:04.590Z,4.00
2019-02-28T02:27:05.179Z,4.00
2019-02-28T02:28:04.307Z,4.00
2019-02-28T02:29:09.835Z,4.00
2019-02-28T02:30:13.257Z,4.10
2019-02-28T02:31:04.359Z,4.10
2019-02-28T02:32:04.512Z,4.10
2019-02-28T02:33:04.693Z,4.10
2019-02-28T02:34:04.837Z,4.10
2019-02-28T02:35:07.783Z,4.10
2019-02-28T02:36:04.960Z,4.10
2019-02-28T02:37:04.519Z,4.10
2019-02-28T02:38:04.964Z,4.20
2019-02-28T02:39:04.805Z,4.20
2019-02-28T02:40:05.000Z,4.20
2019-02-28T02:41:04.947Z,4.20
2019-02-28T02:42:09.707Z,4.20
2019-02-28T02:43:04.211Z,4.20
2019-02-28T02:44:04.478Z,4.20
2019-02-28T02:45:05.484Z,4.20
2019-02-28T02:46:04.168Z,4.20
2019-02-28T02:47:04.852Z,4.20
2019-02-28T02:48:05.502Z,4.20
2019-02-28T02:49:04.456Z,4.20
2019-02-28T02:50:04.634Z,4.20
2019-02-28T02:51:10.530Z,4.20
2019-02-28T02:52:05.058Z,4.20
2019-02-28T02:53:05.336Z,4.10
2019-02-28T02:54:04.233Z,4.10
2019-02-28T02:55:04.847Z,4.10
2019-02-28T02:56:05.082Z,4.10
2019-02-28T02:57:04.614Z,4.10
2019-02-28T02:58:04.714Z,4.00
2019-02-28T02:59:04.993Z,4.00
2019-02-28T03:00:05.021Z,4.00
2019-02-28T03:01:05.159Z,4.00
2019-02-28T03:02:04.663Z,4.00
2019-02-28T03:03:05.977Z,3.90
2019-02-28T03:04:04.348Z,3.90
2019-02-28T03:05:04.781Z,3.90
2019-02-28T03:06:11.730Z,3.90
2019-02-28T03:07:04.601Z,3.90
2019-02-28T03:08:04.349Z,3.90
2019-02-28T03:09:04.554Z,3.90
2019-02-28T03:10:04.849Z,3.80
2019-02-28T03:11:05.024Z,3.80
2019-02-28T03:12:05.114Z,3.80
2019-02-28T03:13:05.919Z,3.80
2019-02-28T03:14:05.138Z,3.70
2019-02-28T03:15:04.623Z,3.70
2019-02-28T03:16:04.236Z,3.70
2019-02-28T03:17:09.553Z,3.70
2019-02-28T03:18:04.612Z,3.60
2019-02-28T03:19:05.029Z,3.60
2019-02-28T03:20:07.314Z,3.60
2019-02-28T03:21:04.189Z,3.60
2019-02-28T03:22:04.516Z,3.60
2019-02-28T03:23:04.809Z,3.60
2019-02-28T03:24:04.966Z,3.60
2019-02-28T03:25:05.070Z,3.50
2019-02-28T03:26:06.806Z,3.50
2019-02-28T03:27:04.875Z,3.50
2019-02-28T03:28:04.329Z,3.50
2019-02-28T03:29:09.473Z,3.50
2019-02-28T03:30:04.801Z,3.50
2019-02-28T03:31:11.473Z,3.50
2019-02-28T03:32:04.796Z,3.60
2019-02-28T03:33:05.043Z,3.60
2019-02-28T03:34:12.686Z,3.60
2019-02-28T03:35:04.593Z,3.60
2019-02-28T03:36:04.152Z,3.60
2019-02-28T03:37:04.331Z,3.60
2019-02-28T03:38:10.166Z,3.70
2019-02-28T03:39:05.026Z,3.70
2019-02-28T03:40:05.474Z,3.70
2019-02-28T03:41:04.315Z,3.70
2019-02-28T03:42:04.797Z,3.70
2019-02-28T03:43:06.604Z,3.70
2019-02-28T03:44:04.678Z,3.70
2019-02-28T03:45:04.972Z,3.60
2019-02-28T03:46:06.248Z,3.60
2019-02-28T03:47:04.846Z,3.60
2019-02-28T03:48:05.068Z,3.60
2019-02-28T03:49:10.839Z,3.60
2019-02-28T03:50:04.935Z,3.50
2019-02-28T03:51:05.048Z,3.50
2019-02-28T03:52:06.565Z,3.50
2019-02-28T03:53:04.568Z,3.50
2019-02-28T03:54:04.688Z,3.50
2019-02-28T03:55:04.816Z,3.50
2019-02-28T03:56:04.996Z,3.50
2019-02-28T03:57:04.298Z,3.40
2019-02-28T03:58:05.585Z,3.40
2019-02-28T03:59:04.515Z,3.40
2019-02-28T04:00:04.970Z,3.40
2019-02-28T04:01:09.222Z,3.30
2019-02-28T04:02:04.992Z,3.30
2019-02-28T04:03:04.412Z,3.30
2019-02-28T04:04:10.708Z,3.30
2019-02-28T04:05:09.870Z,3.30
2019-02-28T04:06:04.866Z,3.30
2019-02-28T04:07:04.821Z,3.30
2019-02-28T04:08:04.255Z,3.30
2019-02-28T04:09:08.314Z,3.30
2019-02-28T04:10:04.521Z,3.30
2019-02-28T04:11:04.776Z,3.30
2019-02-28T04:12:08.485Z,3.30
2019-02-28T04:13:04.639Z,3.30
2019-02-28T04:14:04.750Z,3.30
2019-02-28T04:15:05.699Z,3.30
2019-02-28T04:16:08.888Z,3.30
2019-02-28T04:17:04.530Z,3.20
2019-02-28T04:18:07.417Z,3.20
2019-02-28T04:19:05.185Z,3.20
2019-02-28T04:20:04.591Z,3.20
2019-02-28T04:21:05.047Z,3.20
2019-02-28T04:22:04.477Z,3.20
2019-02-28T04:23:04.544Z,3.20
2019-02-28T04:24:12.360Z,3.20
2019-02-28T04:25:04.524Z,3.20
2019-02-28T04:26:04.552Z,3.20
2019-02-28T04:27:06.797Z,3.20
2019-02-28T04:28:04.520Z,3.20
2019-02-28T04:29:04.632Z,3.20
2019-02-28T04:30:07.838Z,3.20
2019-02-28T04:31:04.997Z,3.20
2019-02-28T04:32:05.106Z,3.20
2019-02-28T04:33:04.869Z,3.20
2019-02-28T04:34:05.175Z,3.20
2019-02-28T04:35:04.790Z,3.20
2019-02-28T04:36:04.984Z,3.20
2019-02-28T04:37:08.513Z,3.20
2019-02-28T04:38:04.270Z,3.20
2019-02-28T04:39:09.348Z,3.20
2019-02-28T04:40:06.444Z,3.20
2019-02-28T04:41:04.233Z,3.20
2019-02-28T04:42:05.135Z,3.20
2019-02-28T04:43:07.203Z,3.20
2019-02-28T04:44:04.145Z,3.20
2019-02-28T04:45:05.002Z,3.20
2019-02-28T04:46:04.286Z,3.20
2019-02-28T04:47:06.750Z,3.20
2019-02-28T04:48:04.339Z,3.20
2019-02-28T04:49:04.351Z,3.20
2019-02-28T04:50:04.947Z,3.20
2019-02-28T04:51:05.670Z,3.10
2019-02-28T04:52:05.187Z,3.20
2019-02-28T04:53:04.197Z,3.10
2019-02-28T04:54:04.702Z,3.10
2019-02-28T04:55:04.327Z,3.10
2019-02-28T04:56:04.500Z,3.10
2019-02-28T04:57:04.503Z,3.00
2019-02-28T04:58:04.803Z,3.00
2019-02-28T04:59:10.174Z,3.00
2019-02-28T05:00:05.787Z,3.00
2019-02-28T05:01:04.493Z,3.00
2019-02-28T05:02:04.709Z,3.00
2019-02-28T05:03:04.853Z,3.00
2019-02-28T05:04:04.602Z,3.00
2019-02-28T05:05:05.044Z,3.00
2019-02-28T05:06:05.126Z,3.00
2019-02-28T05:07:04.382Z,3.00
2019-02-28T05:08:05.530Z,3.00
2019-02-28T05:09:04.709Z,3.00
2019-02-28T05:10:04.458Z,3.00
2019-02-28T05:11:05.218Z,3.00
2019-02-28T05:12:05.213Z,2.90
2019-02-28T05:13:04.576Z,3.00
2019-02-28T05:14:05.171Z,3.00
2019-02-28T05:15:04.189Z,3.00
2019-02-28T05:16:04.525Z,3.00
2019-02-28T05:17:04.670Z,3.00
2019-02-28T05:18:05.098Z,3.00
2019-02-28T05:19:05.101Z,3.00
2019-02-28T05:20:07.263Z,2.90
2019-02-28T05:21:04.483Z,2.90
2019-02-28T05:22:05.118Z,2.90
2019-02-28T05:23:04.210Z,2.90
2019-02-28T05:24:07.652Z,2.90
2019-02-28T05:25:05.740Z,2.90
2019-02-28T05:26:05.020Z,2.90
2019-02-28T05:27:04.250Z,2.90
2019-02-28T05:28:06.573Z,2.80
2019-02-28T05:29:04.380Z,2.80
2019-02-28T05:30:04.659Z,2.80
2019-02-28T05:31:04.821Z,2.80
2019-02-28T05:32:04.965Z,2.80
2019-02-28T05:33:06.575Z,2.80
2019-02-28T05:34:04.842Z,2.80
2019-02-28T05:35:05.255Z,2.80
2019-02-28T05:36:04.779Z,2.80
2019-02-28T05:37:04.183Z,2.80
2019-02-28T05:38:04.317Z,2.80
2019-02-28T05:39:04.409Z,2.80
2019-02-28T05:40:06.006Z,2.80
2019-02-28T05:41:04.581Z,2.80
2019-02-28T05:42:05.162Z,2.90
2019-02-28T05:43:04.604Z,2.90
2019-02-28T05:44:06.123Z,2.90
2019-02-28T05:45:04.841Z,2.90
2019-02-28T05:46:04.262Z,2.90
2019-02-28T05:47:09.878Z,2.90
2019-02-28T05:48:04.638Z,3.00
2019-02-28T05:49:04.412Z,3.00
2019-02-28T05:50:04.153Z,3.00
2019-02-28T05:51:04.306Z,3.00
2019-02-28T05:52:04.943Z,3.00
2019-02-28T05:53:06.183Z,3.00
2019-02-28T05:54:04.534Z,3.00
2019-02-28T05:55:04.712Z,3.00
2019-02-28T05:56:05.056Z,3.00
2019-02-28T05:57:08.021Z,3.00
2019-02-28T05:58:04.893Z,3.00
2019-02-28T05:59:04.875Z,3.00
2019-02-28T06:00:04.183Z,3.00
2019-02-28T06:01:05.612Z,3.00
2019-02-28T06:02:04.812Z,3.00
2019-02-28T06:03:04.996Z,3.00
2019-02-28T06:04:04.693Z,3.00
2019-02-28T06:05:04.854Z,3.00
2019-02-28T06:06:05.142Z,3.00
2019-02-28T06:07:04.582Z,3.00
2019-02-28T06:08:05.084Z,3.00
2019-02-28T06:09:04.352Z,3.00
2019-02-28T06:10:04.381Z,3.00
2019-02-28T06:11:05.013Z,3.00
2019-02-28T06:12:06.547Z,3.00
2019-02-28T06:13:04.529Z,2.90
2019-02-28T06:14:04.705Z,2.90
2019-02-28T06:15:04.995Z,2.90
2019-02-28T06:16:05.046Z,2.90
2019-02-28T06:17:04.913Z,2.90
2019-02-28T06:18:05.053Z,2.90
2019-02-28T06:19:04.498Z,2.90
2019-02-28T06:20:04.427Z,2.90
2019-02-28T06:21:04.600Z,2.90
2019-02-28T06:22:05.012Z,2.90
2019-02-28T06:23:06.241Z,2.90
2019-02-28T06:24:04.656Z,2.90
2019-02-28T06:25:04.909Z,2.90
2019-02-28T06:26:04.299Z,2.90
2019-02-28T06:27:06.552Z,2.80
2019-02-28T06:28:04.267Z,2.80
2019-02-28T06:29:09.694Z,2.80
2019-02-28T06:30:04.703Z,2.80
2019-02-28T06:31:04.785Z,2.80
2019-02-28T06:32:05.029Z,2.80
2019-02-28T06:33:05.145Z,2.80
2019-02-28T06:34:05.518Z,2.80
2019-02-28T06:35:04.738Z,2.80
2019-02-28T06:36:04.828Z,2.80
2019-02-28T06:37:05.010Z,2.80
2019-02-28T06:38:06.725Z,2.90
2019-02-28T06:39:04.693Z,2.90
2019-02-28T06:40:04.945Z,2.90
2019-02-28T06:41:07.514Z,3.00
2019-02-28T06:42:05.171Z,3.00
2019-02-28T06:43:04.266Z,3.10
2019-02-28T06:44:04.623Z,3.10
2019-02-28T06:45:04.274Z,3.20
2019-02-28T06:46:04.686Z,3.20
2019-02-28T06:47:04.692Z,3.30
2019-02-28T06:48:04.821Z,3.40
2019-02-28T06:49:10.275Z,3.50
2019-02-28T06:50:04.631Z,3.60
2019-02-28T06:51:04.894Z,3.80
2019-02-28T06:52:04.376Z,3.90
2019-02-28T06:53:04.586Z,4.10
2019-02-28T06:54:07.784Z,4.20
2019-02-28T06:55:04.234Z,4.40
2019-02-28T06:56:04.343Z,4.50
2019-02-28T06:57:04.579Z,4.70
2019-02-28T06:58:04.707Z,4.80
2019-02-28T06:59:05.609Z,5.00
2019-02-28T07:00:04.417Z,5.10
2019-02-28T07:01:04.403Z,5.20
2019-02-28T07:02:04.948Z,5.40
2019-02-28T07:03:05.105Z,5.50
2019-02-28T07:04:04.526Z,5.60
2019-02-28T07:05:04.681Z,5.80
2019-02-28T07:06:04.854Z,5.90
2019-02-28T07:07:07.317Z,6.00
2019-02-28T07:08:04.833Z,6.10
2019-02-28T07:09:05.181Z,6.20
2019-02-28T07:10:06.163Z,6.30
2019-02-28T07:11:04.630Z,6.40
2019-02-28T07:12:04.978Z,6.50
2019-02-28T07:13:05.594Z,6.60
2019-02-28T07:14:04.511Z,6.70
2019-02-28T07:15:04.337Z,6.70
2019-02-28T07:16:04.556Z,6.80
2019-02-28T07:17:07.612Z,6.90
2019-02-28T07:18:04.857Z,7.00
2019-02-28T07:19:04.435Z,7.00
2019-02-28T07:20:04.588Z,7.10
2019-02-28T07:21:07.775Z,7.20
2019-02-28T07:22:05.178Z,7.30
2019-02-28T07:23:04.400Z,7.30
2019-02-28T07:24:04.478Z,7.40
2019-02-28T07:25:05.099Z,7.40
2019-02-28T07:26:04.200Z,7.50
2019-02-28T07:27:04.596Z,7.50
2019-02-28T07:28:04.832Z,7.60
2019-02-28T07:29:11.912Z,7.70
2019-02-28T07:30:04.666Z,7.70
2019-02-28T07:31:04.645Z,7.70
2019-02-28T07:32:05.091Z,7.80
2019-02-28T07:33:09.346Z,7.80
2019-02-28T07:34:05.115Z,7.90
2019-02-28T07:35:04.188Z,7.90
2019-02-28T07:36:05.559Z,8.00
2019-02-28T07:37:04.966Z,8.00
2019-02-28T07:38:05.135Z,8.10
2019-02-28T07:39:04.540Z,8.10
2019-02-28T07:40:04.977Z,8.10
2019-02-28T07:41:05.094Z,8.20
2019-02-28T07:42:04.202Z,8.20
2019-02-28T07:43:04.317Z,8.20
2019-02-28T07:44:04.601Z,8.20
2019-02-28T07:45:05.159Z,8.30
2019-02-28T07:46:07.634Z,8.20
2019-02-28T07:47:04.268Z,8.30
2019-02-28T07:48:04.548Z,8.30
2019-02-28T07:49:09.717Z,8.30
2019-02-28T07:50:07.606Z,8.30
2019-02-28T07:51:04.827Z,8.30
2019-02-28T07:52:05.124Z,8.30
2019-02-28T07:53:05.489Z,8.40
2019-02-28T07:54:04.435Z,8.40
2019-02-28T07:55:04.909Z,8.40
2019-02-28T07:56:06.821Z,8.40
2019-02-28T07:57:04.390Z,8.50
2019-02-28T07:58:05.009Z,8.50
2019-02-28T07:59:05.467Z,8.60
2019-02-28T08:00:05.120Z,8.60
2019-02-28T08:01:04.694Z,8.60
2019-02-28T08:02:04.820Z,8.70
2019-02-28T08:03:04.414Z,8.70
2019-02-28T08:04:04.844Z,8.70
2019-02-28T08:05:04.314Z,8.80
2019-02-28T08:06:05.553Z,8.80
2019-02-28T08:07:04.446Z,8.90
2019-02-28T08:08:05.089Z,8.90
2019-02-28T08:09:04.802Z,8.90
2019-02-28T08:10:04.289Z,9.00
2019-02-28T08:11:04.356Z,9.00
2019-02-28T08:12:04.837Z,9.00
2019-02-28T08:13:04.290Z,9.10
2019-02-28T08:14:05.008Z,9.10
2019-02-28T08:15:05.181Z,9.10
2019-02-28T08:16:04.822Z,9.20
2019-02-28T08:17:05.389Z,9.20
2019-02-28T08:18:05.809Z,9.20
2019-02-28T08:19:04.622Z,9.30
2019-02-28T08:20:04.298Z,9.30
2019-02-28T08:21:05.268Z,9.30
2019-02-28T08:22:04.776Z,9.40
2019-02-28T08:23:05.039Z,9.40
2019-02-28T08:24:05.330Z,9.40
2019-02-28T08:25:07.747Z,9.50
2019-02-28T08:26:04.238Z,9.50
2019-02-28T08:27:04.377Z,9.50
2019-02-28T08:28:04.492Z,9.60
2019-02-28T08:29:11.655Z,9.60
2019-02-28T08:30:04.253Z,9.60
2019-02-28T08:31:04.380Z,9.70
2019-02-28T08:32:07.791Z,9.70
2019-02-28T08:33:04.847Z,9.70
2019-02-28T08:34:04.909Z,9.80
2019-02-28T08:35:04.535Z,9.80
2019-02-28T08:36:08.485Z,9.80
2019-02-28T08:37:05.091Z,9.80
2019-02-28T08:38:06.676Z,9.80
2019-02-28T08:39:06.026Z,9.90
2019-02-28T08:40:04.852Z,9.90
2019-02-28T08:41:06.370Z,10.00
2019-02-28T08:42:04.762Z,10.00
2019-02-28T08:43:04.729Z,10.00
2019-02-28T08:44:04.316Z,10.10
2019-02-28T08:45:04.968Z,10.10
2019-02-28T08:46:09.423Z,10.10
2019-02-28T08:47:05.020Z,10.20
2019-02-28T08:48:04.704Z,10.20
2019-02-28T08:49:07.173Z,10.20
2019-02-28T08:50:05.043Z,10.30
2019-02-28T08:51:05.251Z,10.30
2019-02-28T08:52:05.557Z,10.30
2019-02-28T08:53:04.362Z,10.40
2019-02-28T08:54:06.032Z,10.40
2019-02-28T08:55:07.080Z,10.40
2019-02-28T08:56:04.829Z,10.50
2019-02-28T08:57:05.085Z,10.50
2019-02-28T08:58:05.947Z,10.60
2019-02-28T08:59:11.500Z,10.60
2019-02-28T09:00:04.820Z,10.60
2019-02-28T09:01:05.500Z,10.60
2019-02-28T09:02:04.377Z,10.70
2019-02-28T09:03:04.562Z,10.70
2019-02-28T09:04:05.812Z,10.70
2019-02-28T09:05:04.530Z,10.80
2019-02-28T09:06:07.129Z,10.80
2019-02-28T09:07:05.036Z,10.80
2019-02-28T09:08:04.487Z,10.80
2019-02-28T09:09:05.074Z,10.90
2019-02-28T09:10:06.357Z,10.90
2019-02-28T09:11:05.061Z,10.90
2019-02-28T09:12:05.242Z,11.00
2019-02-28T09:13:07.557Z,11.00
2019-02-28T09:14:04.333Z,11.00
2019-02-28T09:15:04.553Z,11.10
2019-02-28T09:16:05.584Z,11.10
2019-02-28T09:17:04.459Z,11.10
2019-02-28T09:18:04.991Z,11.10
2019-02-28T09:19:04.745Z,11.20
2019-02-28T09:20:07.406Z,11.20
2019-02-28T09:21:04.580Z,11.20
2019-02-28T09:22:04.617Z,11.20
2019-02-28T09:23:06.284Z,11.30
2019-02-28T09:24:05.163Z,11.30
2019-02-28T09:25:04.934Z,11.30
2019-02-28T09:26:05.135Z,11.40
2019-02-28T09:27:04.960Z,11.40
2019-02-28T09:28:04.765Z,11.40
2019-02-28T09:29:04.928Z,11.50
2019-02-28T09:30:04.248Z,11.50
2019-02-28T09:31:04.858Z,11.60
2019-02-28T09:32:04.674Z,11.60
2019-02-28T09:33:05.014Z,11.70
2019-02-28T09:34:05.255Z,11.70
2019-02-28T09:35:05.726Z,11.80
2019-02-28T09:36:04.505Z,11.80
2019-02-28T09:37:04.660Z,11.80
2019-02-28T09:38:07.309Z,11.90
2019-02-28T09:39:04.837Z,11.90
2019-02-28T09:40:04.958Z,12.00
2019-02-28T09:41:04.625Z,12.00
2019-02-28T09:42:04.211Z,12.10
2019-02-28T09:43:04.467Z,12.10
2019-02-28T09:44:04.523Z,12.10
2019-02-28T09:45:07.546Z,12.20
2019-02-28T09:46:04.427Z,12.20
2019-02-28T09:47:04.549Z,12.30
2019-02-28T09:48:05.141Z,12.30
2019-02-28T09:49:05.633Z,12.30
2019-02-28T09:50:04.459Z,12.40
2019-02-28T09:51:04.808Z,12.40
2019-02-28T09:52:06.277Z,12.40
2019-02-28T09:53:04.996Z,12.50
2019-02-28T09:54:05.125Z,12.50
2019-02-28T09:55:04.478Z,12.50
2019-02-28T09:56:08.818Z,12.50
2019-02-28T09:57:04.737Z,12.60
2019-02-28T09:58:04.897Z,12.60
2019-02-28T09:59:04.985Z,12.60
2019-02-28T10:00:04.665Z,12.70
2019-02-28T10:01:04.337Z,12.70
2019-02-28T10:02:07.904Z,12.70
2019-02-28T10:03:10.032Z,12.70
2019-02-28T10:04:04.295Z,12.70
2019-02-28T10:05:06.442Z,12.80
2019-02-28T10:06:05.075Z,12.80
2019-02-28T10:07:04.295Z,12.80
2019-02-28T10:08:04.444Z,12.90
2019-02-28T10:09:04.791Z,12.90
2019-02-28T10:10:04.204Z,12.90
2019-02-28T10:11:04.333Z,13.00
2019-02-28T10:12:07.770Z,13.00
2019-02-28T10:13:04.726Z,13.10
2019-02-28T10:14:04.899Z,13.10
2019-02-28T10:15:06.932Z,13.10
2019-02-28T10:16:05.097Z,13.10
2019-02-28T10:17:04.294Z,13.20
2019-02-28T10:18:05.228Z,13.20
2019-02-28T10:19:05.209Z,13.20
2019-02-28T10:20:05.158Z,13.20
2019-02-28T10:21:04.389Z,13.30
2019-02-28T10:22:04.718Z,13.30
2019-02-28T10:23:04.805Z,13.30
2019-02-28T10:24:04.878Z,13.40
2019-02-28T10:25:06.437Z,13.40
2019-02-28T10:26:04.586Z,13.40
2019-02-28T10:27:04.817Z,13.40
2019-02-28T10:28:04.949Z,13.50
2019-02-28T10:29:10.095Z,13.50
2019-02-28T10:30:04.504Z,13.50
2019-02-28T10:31:04.605Z,13.50
2019-02-28T10:32:06.124Z,13.60
2019-02-28T10:33:05.038Z,13.60
2019-02-28T10:34:04.657Z,13.60
2019-02-28T10:35:04.964Z,13.60
2019-02-28T10:36:05.173Z,13.70
2019-02-28T10:37:04.535Z,13.70
2019-02-28T10:38:04.986Z,13.70
2019-02-28T10:39:05.809Z,13.70
2019-02-28T10:40:05.098Z,13.80
2019-02-28T10:41:04.883Z,13.80
2019-02-28T10:42:06.042Z,13.80
2019-02-28T10:43:04.798Z,13.90
2019-02-28T10:44:04.528Z,13.90
2019-02-28T10:45:06.450Z,13.90
2019-02-28T10:46:04.696Z,13.90
2019-02-28T10:47:04.982Z,13.90
2019-02-28T10:48:04.320Z,13.90
2019-02-28T10:49:04.632Z,14.00
2019-02-28T10:50:04.716Z,14.00
2019-02-28T10:51:11.852Z,14.00
2019-02-28T10:52:04.757Z,14.10
2019-02-28T10:53:05.993Z,14.10
2019-02-28T10:54:04.833Z,14.10
2019-02-28T10:55:05.113Z,14.20
2019-02-28T10:56:05.160Z,14.20
2019-02-28T10:57:05.922Z,14.20
2019-02-28T10:58:04.599Z,14.30
2019-02-28T10:59:04.846Z,14.30
2019-02-28T11:00:04.847Z,14.30
2019-02-28T11:01:08.601Z,14.30
2019-02-28T11:02:04.723Z,14.40
2019-02-28T11:03:04.910Z,14.40
2019-02-28T11:04:07.360Z,14.40
2019-02-28T11:05:04.553Z,14.40
2019-02-28T11:06:04.827Z,14.50
2019-02-28T11:07:05.048Z,14.50
2019-02-28T11:08:04.896Z,14.50
2019-02-28T11:09:04.309Z,14.50
2019-02-28T11:10:04.398Z,14.50
2019-02-28T11:11:07.263Z,14.50
2019-02-28T11:12:04.524Z,14.50
2019-02-28T11:13:05.042Z,14.50
2019-02-28T11:14:05.008Z,14.50
2019-02-28T11:15:04.781Z,14.60
2019-02-28T11:16:05.017Z,14.60
2019-02-28T11:17:08.890Z,14.60
2019-02-28T11:18:08.315Z,14.60
2019-02-28T11:19:04.453Z,14.70
2019-02-28T11:20:04.432Z,14.70
2019-02-28T11:21:04.553Z,14.70
2019-02-28T11:22:05.797Z,14.70
2019-02-28T11:23:04.804Z,14.70
2019-02-28T11:24:04.426Z,14.80
2019-02-28T11:25:04.703Z,14.80
2019-02-28T11:26:06.355Z,14.80
2019-02-28T11:27:04.782Z,14.80
2019-02-28T11:28:05.001Z,14.80
2019-02-28T11:29:09.331Z,14.80
2019-02-28T11:30:07.360Z,14.80
2019-02-28T11:31:05.209Z,14.90
2019-02-28T11:32:04.530Z,14.90
2019-02-28T11:33:04.716Z,14.90
2019-02-28T11:34:04.185Z,14.90
2019-02-28T11:35:04.644Z,14.90
2019-02-28T11:36:04.812Z,14.90
2019-02-28T11:37:05.438Z,14.90
2019-02-28T11:38:05.041Z,14.90
2019-02-28T11:39:04.902Z,15.00
2019-02-28T11:40:05.366Z,15.00
2019-02-28T11:41:04.947Z,15.00
2019-02-28T11:42:04.407Z,15.00
2019-02-28T11:43:04.442Z,15.00
2019-02-28T11:44:04.780Z,15.00
2019-02-28T11:45:04.942Z,15.00
2019-02-28T11:46:05.190Z,15.00
2019-02-28T11:47:05.093Z,15.00
2019-02-28T11:48:04.267Z,15.00
2019-02-28T11:49:09.956Z,15.00
2019-02-28T11:50:07.034Z,15.00
2019-02-28T11:51:04.216Z,15.00
2019-02-28T11:52:04.365Z,15.00
2019-02-28T11:53:05.935Z,15.00
2019-02-28T11:54:04.864Z,15.00
2019-02-28T11:55:04.889Z,15.00
2019-02-28T11:56:05.156Z,15.10
2019-02-28T11:57:06.688Z,15.10
2019-02-28T11:58:04.503Z,15.10
2019-02-28T11:59:04.651Z,15.10
2019-02-28T12:00:04.925Z,15.10
2019-02-28T12:01:09.938Z,15.10
2019-02-28T12:02:04.763Z,15.10
2019-02-28T12:03:05.533Z,15.10
2019-02-28T12:04:04.593Z,15.10
2019-02-28T12:05:04.754Z,15.20
2019-02-28T12:06:06.795Z,15.20
2019-02-28T12:07:04.688Z,15.20
2019-02-28T12:08:09.009Z,15.20
2019-02-28T12:09:05.171Z,15.20
2019-02-28T12:10:04.477Z,15.20
2019-02-28T12:11:04.570Z,15.20
2019-02-28T12:12:07.235Z,15.20
2019-02-28T12:13:04.640Z,15.20
2019-02-28T12:14:06.306Z,15.20
2019-02-28T12:15:05.952Z,15.20
2019-02-28T12:16:04.480Z,15.20
2019-02-28T12:17:05.127Z,15.20
2019-02-28T12:18:05.261Z,15.20
2019-02-28T12:19:04.482Z,15.20
2019-02-28T12:20:04.928Z,15.20
2019-02-28T12:21:05.067Z,15.20
2019-02-28T12:22:04.425Z,15.30
2019-02-28T12:23:04.530Z,15.20
2019-02-28T12:24:04.753Z,15.20
2019-02-28T12:25:07.537Z,15.20
2019-02-28T12:26:04.643Z,15.20
2019-02-28T12:27:04.242Z,15.20
2019-02-28T12:28:06.598Z,15.20
2019-02-28T12:29:12.563Z,15.20
2019-02-28T12:30:04.262Z,15.20
2019-02-28T12:31:05.111Z,15.20
2019-02-28T12:32:07.984Z,15.20
2019-02-28T12:33:04.357Z,15.20
2019-02-28T12:34:05.094Z,15.20
2019-02-28T12:35:04.298Z,15.20
2019-02-28T12:36:04.592Z,15.20
2019-02-28T12:37:04.787Z,15.20
2019-02-28T12:38:05.015Z,15.20
2019-02-28T12:39:04.369Z,15.20
2019-02-28T12:40:07.265Z,15.20
2019-02-28T12:41:04.281Z,15.20
2019-02-28T12:42:04.509Z,15.10
2019-02-28T12:43:05.310Z,15.10
2019-02-28T12:44:05.058Z,15.10
2019-02-28T12:45:04.596Z,15.10
2019-02-28T12:46:04.904Z,15.10
2019-02-28T12:47:06.404Z,15.10
2019-02-28T12:48:04.894Z,15.10
2019-02-28T12:49:04.337Z,15.10
2019-02-28T12:50:04.411Z,15.10
2019-02-28T12:51:05.303Z,15.20
2019-02-28T12:52:05.231Z,15.10
2019-02-28T12:53:04.261Z,15.20
2019-02-28T12:54:04.491Z,15.20
2019-02-28T12:55:04.870Z,15.20
2019-02-28T12:56:04.937Z,15.30
2019-02-28T12:57:04.942Z,15.30
2019-02-28T12:58:05.107Z,15.30
2019-02-28T12:59:04.561Z,15.30
2019-02-28T13:00:05.254Z,15.40
2019-02-28T13:01:04.437Z,15.40
2019-02-28T13:02:08.389Z,15.40
2019-02-28T13:03:04.260Z,15.50
2019-02-28T13:04:04.407Z,15.50
2019-02-28T13:05:04.503Z,15.50
2019-02-28T13:06:04.471Z,15.50
2019-02-28T13:07:04.488Z,15.50
2019-02-28T13:08:05.704Z,15.50
2019-02-28T13:09:04.610Z,15.50